Time;durP1;ratioP1;P1;durP2;ratioP2;P2;SDS_P1;SDS_P2;PMS_P1;PMS_P2;Temp;Humidity;BMP_temperature;BMP_pressure;BME280_temperature;BME280_humidity;BME280_pressure;Samples;Min_cycle;Max_cycle;Signal;HPM_P1;HPM_P2
2021/07/01 00:01:12;;;;;;;;;;;18.10;99.90;;;;;;5090112;28;19999;-59
2021/07/01 00:03:39;;;;;;;;;;;18.10;99.90;;;;;;5073657;28;19985;-60
2021/07/01 00:06:05;;;;;;;;;;;18.20;99.90;;;;;;5070488;28;19996;-59
2021/07/01 00:08:31;;;;;;;;;;;18.20;99.90;;;;;;5069944;28;19985;-59
2021/07/01 00:10:56;;;;;;;;;;;18.10;99.90;;;;;;5069657;28;19985;-59
2021/07/01 00:13:22;;;;;;;;;;;18.20;99.90;;;;;;5068908;28;20370;-59
2021/07/01 00:15:48;;;;;;;;;;;18.20;99.90;;;;;;5069402;28;20724;-60
2021/07/01 00:18:14;;;;;;;;;;;18.20;99.90;;;;;;5069002;28;19985;-60
2021/07/01 00:20:39;;;;;;;;;;;18.20;99.90;;;;;;5069020;28;19993;-60
2021/07/01 00:23:05;;;;;;;;;;;18.10;99.90;;;;;;5068869;28;20447;-59
2021/07/01 00:25:30;;;;;;;;;;;18.10;99.90;;;;;;5069847;28;20071;-59
2021/07/01 00:27:58;;;;;;;;;;;18.00;99.90;;;;;;5069263;28;19988;-59
2021/07/01 00:30:24;;;;;;;;;;;17.90;99.90;;;;;;5069400;28;19992;-59
2021/07/01 00:32:51;;;;;;;;;;;17.80;99.90;;;;;;5069071;28;19981;-59
2021/07/01 00:35:17;;;;;;;;;;;17.60;99.90;;;;;;5068797;28;20376;-59
2021/07/01 00:37:43;;;;;;;;;;;17.60;99.90;;;;;;5068686;28;20501;-59
2021/07/01 00:40:10;;;;;;;;;;;17.60;99.90;;;;;;5080496;28;20382;-59
2021/07/01 00:42:36;;;;;;;;;;;17.60;99.90;;;;;;5088666;28;20039;-59
2021/07/01 00:45:02;;;;;;;;;;;17.70;99.90;;;;;;5068611;28;20034;-59
2021/07/01 00:47:28;;;;;;;;;;;17.70;99.90;;;;;;5068931;28;19993;-59
2021/07/01 00:49:53;;;;;;;;;;;17.70;99.90;;;;;;5068636;28;19989;-59
2021/07/01 00:52:19;;;;;;;;;;;17.70;99.90;;;;;;5068808;28;20466;-59
2021/07/01 00:54:45;;;;;;;;;;;17.60;99.90;;;;;;5068041;28;20009;-59
2021/07/01 00:57:11;;;;;;;;;;;17.60;99.90;;;;;;5068585;28;19988;-59
2021/07/01 00:59:38;;;;;;;;;;;17.60;99.90;;;;;;5068390;28;20079;-59
2021/07/01 01:02:04;;;;;;;;;;;17.70;99.90;;;;;;5069076;28;20410;-59
2021/07/01 01:04:30;;;;;;;;;;;17.80;99.90;;;;;;5068334;28;20448;-59
2021/07/01 01:06:55;;;;;;;;;;;17.80;99.90;;;;;;5068810;28;19993;-59
2021/07/01 01:09:22;;;;;;;;;;;17.90;99.90;;;;;;5067775;28;19981;-59
2021/07/01 01:11:47;;;;;;;;;;;17.80;99.90;;;;;;5067879;28;20023;-59
2021/07/01 01:14:14;;;;;;;;;;;17.60;99.90;;;;;;5066971;28;20005;-59
2021/07/01 01:16:40;;;;;;;;;;;17.50;99.90;;;;;;5066530;28;20102;-59
2021/07/01 01:19:05;;;;;;;;;;;17.50;99.90;;;;;;5065417;28;20055;-60
2021/07/01 01:21:31;;;;;;;;;;;17.50;99.90;;;;;;5066722;28;20030;-59
2021/07/01 01:23:57;;;;;;;;;;;17.60;99.90;;;;;;5066656;28;20026;-59
2021/07/01 01:26:23;;;;;;;;;;;17.70;99.90;;;;;;5066451;28;20363;-59
2021/07/01 01:28:52;;;;;;;;;;;17.80;99.90;;;;;;5066345;28;19989;-59
2021/07/01 01:31:19;;;;;;;;;;;17.70;99.90;;;;;;5066482;28;19985;-59
2021/07/01 01:33:45;;;;;;;;;;;17.50;99.90;;;;;;5065848;28;20006;-59
2021/07/01 01:36:11;;;;;;;;;;;17.40;99.90;;;;;;5066154;28;19985;-59
2021/07/01 01:38:37;;;;;;;;;;;17.40;99.90;;;;;;5066060;28;20043;-60
2021/07/01 01:41:03;;;;;;;;;;;17.40;99.90;;;;;;5066719;28;20051;-60
2021/07/01 01:43:28;;;;;;;;;;;17.30;99.90;;;;;;5066458;28;19993;-59
2021/07/01 01:45:54;;;;;;;;;;;17.50;99.90;;;;;;5066317;28;20080;-59
2021/07/01 01:48:20;;;;;;;;;;;17.50;99.90;;;;;;5065773;28;20024;-60
2021/07/01 01:50:46;;;;;;;;;;;17.50;99.90;;;;;;5065766;28;20265;-60
2021/07/01 01:53:12;;;;;;;;;;;17.50;99.90;;;;;;5065633;28;20027;-59
2021/07/01 01:55:38;;;;;;;;;;;17.40;99.90;;;;;;5065965;28;20564;-59
2021/07/01 01:58:04;;;;;;;;;;;17.40;99.90;;;;;;5066137;28;19981;-60
2021/07/01 02:00:31;;;;;;;;;;;17.30;99.90;;;;;;5066629;28;19985;-59
2021/07/01 02:02:57;;;;;;;;;;;17.30;99.90;;;;;;5065442;28;20438;-59
2021/07/01 02:05:24;;;;;;;;;;;17.30;99.90;;;;;;5065711;28;20015;-60
2021/07/01 02:07:49;;;;;;;;;;;17.30;99.90;;;;;;5065747;28;19989;-60
2021/07/01 02:10:25;;;;;;;;;;;17.30;99.90;;;;;;5066275;28;20767;-59
2021/07/01 02:12:52;;;;;;;;;;;17.30;99.90;;;;;;5070649;28;19992;-60
2021/07/01 02:15:20;;;;;;;;;;;17.30;99.90;;;;;;5086027;28;20012;-60
2021/07/01 02:17:47;;;;;;;;;;;17.30;99.90;;;;;;5072028;28;19989;-59
2021/07/01 02:20:18;;;;;;;;;;;17.30;99.90;;;;;;5064635;28;20414;-59
2021/07/01 02:22:44;;;;;;;;;;;17.30;99.90;;;;;;5065196;28;20035;-59
2021/07/01 02:25:10;;;;;;;;;;;17.20;99.90;;;;;;5065575;28;20032;-59
2021/07/01 02:27:37;;;;;;;;;;;17.30;99.90;;;;;;5065436;28;20023;-59
2021/07/01 02:30:05;;;;;;;;;;;17.30;99.90;;;;;;5066086;28;20672;-59
2021/07/01 02:32:31;;;;;;;;;;;17.20;99.90;;;;;;5065742;28;19989;-59
2021/07/01 02:34:56;;;;;;;;;;;17.20;99.90;;;;;;5075535;28;20049;-59
2021/07/01 02:37:24;;;;;;;;;;;17.20;99.90;;;;;;5085592;28;19992;-59
2021/07/01 02:39:49;;;;;;;;;;;17.30;99.90;;;;;;5085635;28;19991;-59
2021/07/01 02:42:15;;;;;;;;;;;17.30;99.90;;;;;;5084992;28;19993;-59
2021/07/01 02:44:40;;;;;;;;;;;17.40;99.90;;;;;;5066172;28;20014;-60
2021/07/01 02:47:06;;;;;;;;;;;17.40;99.90;;;;;;5065197;28;20034;-59
2021/07/01 02:49:32;;;;;;;;;;;17.50;99.90;;;;;;5065633;28;20000;-59
2021/07/01 02:51:57;;;;;;;;;;;17.60;99.90;;;;;;5065527;28;20322;-59
2021/07/01 02:54:24;;;;;;;;;;;17.70;99.90;;;;;;5064911;28;20454;-59
2021/07/01 02:56:49;;;;;;;;;;;17.70;99.90;;;;;;5065153;28;20004;-60
2021/07/01 02:59:16;;;;;;;;;;;17.70;99.90;;;;;;5065026;28;20468;-60
2021/07/01 03:01:42;;;;;;;;;;;17.90;99.90;;;;;;5065218;28;19981;-60
2021/07/01 03:04:09;;;;;;;;;;;18.00;99.90;;;;;;5074732;28;20046;-59
2021/07/01 03:06:35;;;;;;;;;;;18.10;99.90;;;;;;5085040;28;20043;-60
2021/07/01 03:09:01;;;;;;;;;;;18.10;99.90;;;;;;5086249;28;19981;-59
2021/07/01 03:11:27;;;;;;;;;;;18.10;99.90;;;;;;5085198;28;19980;-59
2021/07/01 03:13:53;;;;;;;;;;;18.00;99.90;;;;;;5076154;28;20023;-59
2021/07/01 03:16:19;;;;;;;;;;;18.00;99.90;;;;;;5064984;28;19981;-59
2021/07/01 03:18:46;;;;;;;;;;;17.90;99.90;;;;;;5082877;28;19989;-60
2021/07/01 03:21:11;;;;;;;;;;;17.90;99.90;;;;;;5085349;28;19984;-59
2021/07/01 03:23:37;;;;;;;;;;;17.90;99.90;;;;;;5078888;28;20051;-59
2021/07/01 03:26:04;;;;;;;;;;;17.90;99.90;;;;;;5065937;28;19985;-59
2021/07/01 03:28:29;;;;;;;;;;;17.80;99.90;;;;;;5065159;28;19992;-59
2021/07/01 03:30:55;;;;;;;;;;;17.60;99.90;;;;;;5065674;28;20067;-59
2021/07/01 03:33:21;;;;;;;;;;;17.50;99.90;;;;;;5068359;28;20114;-59
2021/07/01 03:35:47;;;;;;;;;;;17.50;99.90;;;;;;5068784;28;19985;-59
2021/07/01 03:38:13;;;;;;;;;;;17.50;99.90;;;;;;5068934;28;19985;-59
2021/07/01 03:40:39;;;;;;;;;;;17.50;99.90;;;;;;5068530;28;20455;-59
2021/07/01 03:43:05;;;;;;;;;;;17.50;99.90;;;;;;5068805;28;19989;-59
2021/07/01 03:45:30;;;;;;;;;;;17.60;99.90;;;;;;5068631;28;19985;-59
2021/07/01 03:47:56;;;;;;;;;;;17.70;99.90;;;;;;5068281;28;19993;-59
2021/07/01 03:50:22;;;;;;;;;;;17.70;99.90;;;;;;5068703;28;19991;-60
2021/07/01 03:52:48;;;;;;;;;;;17.70;99.90;;;;;;5068458;28;20163;-59
2021/07/01 03:55:13;;;;;;;;;;;17.60;99.90;;;;;;5067872;28;20005;-59
2021/07/01 03:57:39;;;;;;;;;;;17.40;99.90;;;;;;5068205;28;19988;-59
2021/07/01 04:00:06;;;;;;;;;;;17.40;99.90;;;;;;5085264;28;19988;-59
2021/07/01 04:02:31;;;;;;;;;;;17.40;99.90;;;;;;5079480;28;20095;-59
2021/07/01 04:04:57;;;;;;;;;;;17.50;99.90;;;;;;5068213;28;20130;-59
2021/07/01 04:07:23;;;;;;;;;;;17.50;99.90;;;;;;5068012;28;20000;-59
2021/07/01 04:09:49;;;;;;;;;;;17.60;99.90;;;;;;5068038;28;19984;-59
2021/07/01 04:12:14;;;;;;;;;;;17.60;99.90;;;;;;5067388;28;19985;-59
2021/07/01 04:14:41;;;;;;;;;;;17.60;99.90;;;;;;5067541;28;20067;-59
2021/07/01 04:17:06;;;;;;;;;;;17.70;99.90;;;;;;5068088;28;19989;-59
2021/07/01 04:19:32;;;;;;;;;;;17.60;99.90;;;;;;5068326;28;19989;-59
2021/07/01 04:21:59;;;;;;;;;;;17.60;99.90;;;;;;5067650;28;20116;-59
2021/07/01 04:24:24;;;;;;;;;;;17.70;99.90;;;;;;5068087;28;20039;-59
2021/07/01 04:26:50;;;;;;;;;;;17.60;99.90;;;;;;5067490;28;19981;-59
2021/07/01 04:29:15;;;;;;;;;;;17.70;99.90;;;;;;5067707;28;19996;-59
2021/07/01 04:31:41;;;;;;;;;;;17.70;99.90;;;;;;5079399;28;20028;-59
2021/07/01 04:34:07;;;;;;;;;;;17.70;99.90;;;;;;5068693;28;20008;-59
2021/07/01 04:36:34;;;;;;;;;;;17.70;99.90;;;;;;5067838;28;19989;-59
2021/07/01 04:38:59;;;;;;;;;;;17.80;99.90;;;;;;5068400;28;20016;-59
2021/07/01 04:41:26;;;;;;;;;;;17.80;99.90;;;;;;5070943;28;20039;-59
2021/07/01 04:43:52;;;;;;;;;;;17.80;99.90;;;;;;5070407;28;19993;-59
2021/07/01 04:46:18;;;;;;;;;;;17.80;99.90;;;;;;5067528;28;20035;-59
2021/07/01 04:48:43;;;;;;;;;;;17.70;99.90;;;;;;5067043;28;20467;-60
2021/07/01 04:51:09;;;;;;;;;;;17.80;99.90;;;;;;5068024;28;20084;-59
2021/07/01 04:53:35;;;;;;;;;;;17.70;99.90;;;;;;5069052;28;19985;-59
2021/07/01 04:56:00;;;;;;;;;;;17.80;99.90;;;;;;5067418;28;19989;-59
2021/07/01 04:58:26;;;;;;;;;;;17.80;99.90;;;;;;5067447;28;19981;-59
2021/07/01 05:00:52;;;;;;;;;;;17.80;99.90;;;;;;5065955;28;20475;-59
2021/07/01 05:03:18;;;;;;;;;;;17.80;99.90;;;;;;5066615;28;20036;-59
2021/07/01 05:05:43;;;;;;;;;;;17.80;99.90;;;;;;5066534;28;19993;-60
2021/07/01 05:08:09;;;;;;;;;;;17.70;99.90;;;;;;5066021;28;20371;-59
2021/07/01 05:10:34;;;;;;;;;;;17.80;99.90;;;;;;5067144;28;19985;-59
2021/07/01 05:13:00;;;;;;;;;;;17.70;99.90;;;;;;5066776;28;20254;-59
2021/07/01 05:15:25;;;;;;;;;;;17.70;99.90;;;;;;5076143;28;20012;-59
2021/07/01 05:17:52;;;;;;;;;;;17.80;99.90;;;;;;5086891;28;19985;-59
2021/07/01 05:20:17;;;;;;;;;;;17.80;99.90;;;;;;5087179;28;19982;-59
2021/07/01 05:22:43;;;;;;;;;;;17.90;99.90;;;;;;5087153;28;20389;-59
2021/07/01 05:25:09;;;;;;;;;;;17.70;99.90;;;;;;5076616;28;20000;-59
2021/07/01 05:27:35;;;;;;;;;;;17.80;99.90;;;;;;5066114;28;20000;-60
2021/07/01 05:30:00;;;;;;;;;;;17.80;99.90;;;;;;5066915;28;20359;-59
2021/07/01 05:32:26;;;;;;;;;;;17.90;99.90;;;;;;5066633;28;19992;-59
2021/07/01 05:34:52;;;;;;;;;;;17.90;99.90;;;;;;5065994;28;20660;-59
2021/07/01 05:37:18;;;;;;;;;;;18.00;99.90;;;;;;5066539;28;19994;-59
2021/07/01 05:39:44;;;;;;;;;;;17.90;99.90;;;;;;5066306;28;19993;-59
2021/07/01 05:42:11;;;;;;;;;;;17.90;99.90;;;;;;5066535;28;20375;-59
2021/07/01 05:44:36;;;;;;;;;;;17.90;99.90;;;;;;5066204;28;19985;-59
2021/07/01 05:47:02;;;;;;;;;;;17.90;99.90;;;;;;5066296;28;20000;-59
2021/07/01 05:49:29;;;;;;;;;;;17.90;99.90;;;;;;5066367;28;20459;-59
2021/07/01 05:51:58;;;;;;;;;;;17.90;99.90;;;;;;5065105;28;19996;-59
2021/07/01 05:54:36;;;;;;;;;;;17.90;99.90;;;;;;5065246;28;20012;-59
2021/07/01 05:57:03;;;;;;;;;;;18.00;99.90;;;;;;5066313;28;20138;-59
2021/07/01 05:59:28;;;;;;;;;;;18.00;99.90;;;;;;5066089;28;19985;-59
2021/07/01 06:01:55;;;;;;;;;;;18.00;99.90;;;;;;5066105;28;20000;-59
2021/07/01 06:04:21;;;;;;;;;;;18.00;99.90;;;;;;5065730;28;19985;-59
2021/07/01 06:06:51;;;;;;;;;;;17.90;99.90;;;;;;5065690;28;20475;-59
2021/07/01 06:09:21;;;;;;;;;;;17.90;99.90;;;;;;5072138;28;19985;-59
2021/07/01 06:11:51;;;;;;;;;;;18.00;99.90;;;;;;5065580;28;20455;-59
2021/07/01 06:14:18;;;;;;;;;;;18.10;99.90;;;;;;5065576;28;20058;-59
2021/07/01 06:16:45;;;;;;;;;;;18.20;99.90;;;;;;5065497;28;20481;-59
2021/07/01 06:19:14;;;;;;;;;;;18.20;99.90;;;;;;5065362;28;20739;-59
2021/07/01 06:21:40;;;;;;;;;;;18.30;99.90;;;;;;5065556;28;19985;-59
2021/07/01 06:24:07;;;;;;;;;;;18.30;99.90;;;;;;5065322;28;20122;-59
2021/07/01 06:26:34;;;;;;;;;;;18.20;99.90;;;;;;5066446;28;20043;-59
2021/07/01 06:29:00;;;;;;;;;;;18.20;99.90;;;;;;5064477;28;20425;-59
2021/07/01 06:31:25;;;;;;;;;;;18.30;99.90;;;;;;5065889;28;20101;-60
2021/07/01 06:33:51;;;;;;;;;;;18.40;99.90;;;;;;5065611;28;20005;-59
2021/07/01 06:36:17;;;;;;;;;;;18.40;99.90;;;;;;5065648;28;20039;-60
2021/07/01 06:38:46;;;;;;;;;;;18.40;99.90;;;;;;5065736;28;19997;-59
2021/07/01 06:41:13;;;;;;;;;;;18.50;99.90;;;;;;5074647;28;19989;-59
2021/07/01 06:43:41;;;;;;;;;;;18.50;99.90;;;;;;5078327;28;20467;-59
2021/07/01 06:46:07;;;;;;;;;;;18.50;99.90;;;;;;5065571;28;19995;-60
2021/07/01 06:48:33;;;;;;;;;;;18.60;99.90;;;;;;5071055;28;20036;-59
2021/07/01 06:50:59;;;;;;;;;;;18.50;99.90;;;;;;5078939;28;19992;-60
2021/07/01 06:53:26;;;;;;;;;;;18.50;99.90;;;;;;5074056;28;19996;-59
2021/07/01 06:55:53;;;;;;;;;;;18.40;99.90;;;;;;5079630;28;20058;-59
2021/07/01 06:58:19;;;;;;;;;;;18.40;99.90;;;;;;5074664;28;20467;-60
2021/07/01 07:00:45;;;;;;;;;;;18.50;99.90;;;;;;5067126;28;19985;-59
2021/07/01 07:03:17;;;;;;;;;;;18.60;99.90;;;;;;5072558;28;21037;-59
2021/07/01 07:05:48;;;;;;;;;;;18.60;99.90;;;;;;5073092;28;19985;-59
2021/07/01 07:08:14;;;;;;;;;;;18.70;99.90;;;;;;5076769;28;19993;-59
2021/07/01 07:10:42;;;;;;;;;;;18.80;99.90;;;;;;5070510;28;20362;-59
2021/07/01 07:13:07;;;;;;;;;;;18.80;99.90;;;;;;5076677;28;19999;-58
2021/07/01 07:15:33;;;;;;;;;;;18.80;99.90;;;;;;5070440;28;20022;-59
2021/07/01 07:18:17;;;;;;;;;;;18.90;99.90;;;;;;5079989;28;19993;-58
2021/07/01 07:20:44;;;;;;;;;;;19.00;99.90;;;;;;5078688;28;19988;-58
2021/07/01 07:23:13;;;;;;;;;;;19.00;99.90;;;;;;5073758;28;19989;-59
2021/07/01 07:25:40;;;;;;;;;;;19.10;99.90;;;;;;5089766;28;19988;-59
2021/07/01 07:28:07;;;;;;;;;;;19.10;99.90;;;;;;5090213;28;19984;-59
2021/07/01 07:30:33;;;;;;;;;;;19.10;99.90;;;;;;5091165;28;19984;-59
2021/07/01 07:33:05;;;;;;;;;;;19.00;99.90;;;;;;5090254;28;20000;-59
2021/07/01 07:35:32;;;;;;;;;;;19.10;99.90;;;;;;5077202;28;20013;-59
2021/07/01 07:37:59;;;;;;;;;;;19.20;99.90;;;;;;5068461;28;20068;-59
2021/07/01 07:40:25;;;;;;;;;;;19.20;99.90;;;;;;5070486;28;20007;-59
2021/07/01 07:42:51;;;;;;;;;;;19.40;99.90;;;;;;5070329;28;19992;-59
2021/07/01 07:45:16;;;;;;;;;;;19.50;99.90;;;;;;5075512;28;19985;-59
2021/07/01 07:47:42;;;;;;;;;;;19.10;99.90;;;;;;5077472;28;20008;-59
2021/07/01 07:50:08;;;;;;;;;;;19.20;99.90;;;;;;5068096;28;19987;-59
2021/07/01 07:52:34;;;;;;;;;;;19.40;99.90;;;;;;5068598;28;19985;-59
2021/07/01 07:55:02;;;;;;;;;;;19.30;99.90;;;;;;5068849;28;20023;-59
2021/07/01 07:57:29;;;;;;;;;;;19.40;99.90;;;;;;5068991;28;20438;-59
2021/07/01 07:59:56;;;;;;;;;;;19.60;99.90;;;;;;5073510;28;20003;-59
2021/07/01 08:02:30;;;;;;;;;;;19.50;99.90;;;;;;5069262;28;20024;-59
2021/07/01 08:04:59;;;;;;;;;;;19.70;99.90;;;;;;5080191;28;19984;-59
2021/07/01 08:07:25;;;;;;;;;;;19.70;99.90;;;;;;5081368;28;19989;-59
2021/07/01 08:09:51;;;;;;;;;;;19.70;99.90;;;;;;5080225;28;20034;-59
2021/07/01 08:12:17;;;;;;;;;;;19.70;99.90;;;;;;5087893;28;19992;-59
2021/07/01 08:14:43;;;;;;;;;;;19.80;99.90;;;;;;5083916;28;20012;-59
2021/07/01 08:17:12;;;;;;;;;;;19.80;99.90;;;;;;5079731;28;20481;-59
2021/07/01 08:19:38;;;;;;;;;;;19.90;99.90;;;;;;5074383;28;20039;-59
2021/07/01 08:22:04;;;;;;;;;;;19.90;99.90;;;;;;5070443;28;19985;-59
2021/07/01 08:24:30;;;;;;;;;;;19.80;99.90;;;;;;5090007;28;20510;-59
2021/07/01 08:26:56;;;;;;;;;;;19.90;99.90;;;;;;5089069;28;20028;-59
2021/07/01 08:29:23;;;;;;;;;;;19.90;99.90;;;;;;5089091;28;19985;-59
2021/07/01 08:31:50;;;;;;;;;;;20.00;99.90;;;;;;5088651;28;20080;-59
2021/07/01 08:34:17;;;;;;;;;;;19.80;99.90;;;;;;5088938;28;20000;-59
2021/07/01 08:36:48;;;;;;;;;;;20.00;99.90;;;;;;5088348;28;20076;-59
2021/07/01 08:39:13;;;;;;;;;;;20.10;99.90;;;;;;5088904;28;19987;-59
2021/07/01 08:41:41;;;;;;;;;;;20.20;99.90;;;;;;5089295;28;19989;-59
2021/07/01 08:44:10;;;;;;;;;;;20.20;99.90;;;;;;5087086;28;20028;-59
2021/07/01 08:46:38;;;;;;;;;;;20.10;99.90;;;;;;5079405;28;20361;-59
2021/07/01 08:49:07;;;;;;;;;;;19.90;99.90;;;;;;5074105;28;20004;-59
2021/07/01 08:51:37;;;;;;;;;;;20.00;99.90;;;;;;5074872;28;19990;-59
2021/07/01 08:54:20;;;;;;;;;;;20.10;99.90;;;;;;5087034;28;20046;-59
2021/07/01 08:56:46;;;;;;;;;;;20.20;99.90;;;;;;5087997;28;20013;-59
2021/07/01 08:59:13;;;;;;;;;;;20.30;99.90;;;;;;5088435;28;20028;-59
2021/07/01 09:01:40;;;;;;;;;;;20.50;99.90;;;;;;5088617;28;20071;-59
2021/07/01 09:04:16;;;;;;;;;;;20.70;99.90;;;;;;5088347;28;20450;-59
2021/07/01 09:06:43;;;;;;;;;;;20.80;99.90;;;;;;5085500;28;20025;-59
2021/07/01 09:09:10;;;;;;;;;;;20.60;99.90;;;;;;5070173;28;20450;-59
2021/07/01 09:11:38;;;;;;;;;;;20.70;99.90;;;;;;5073114;28;20058;-59
2021/07/01 09:14:05;;;;;;;;;;;20.50;99.90;;;;;;5067253;28;20005;-59
2021/07/01 09:16:30;;;;;;;;;;;20.70;99.90;;;;;;5071920;28;20405;-59
2021/07/01 09:18:58;;;;;;;;;;;20.80;99.90;;;;;;5068857;28;19993;-59
2021/07/01 09:21:24;;;;;;;;;;;20.80;99.90;;;;;;5088927;28;20047;-59
2021/07/01 09:23:51;;;;;;;;;;;20.90;99.90;;;;;;5078209;28;20511;-59
2021/07/01 09:26:22;;;;;;;;;;;20.80;99.90;;;;;;5070119;28;19985;-59
2021/07/01 09:28:48;;;;;;;;;;;20.80;99.90;;;;;;5067699;28;20340;-59
2021/07/01 09:31:16;;;;;;;;;;;20.80;99.90;;;;;;5068573;28;19993;-59
2021/07/01 09:33:41;;;;;;;;;;;20.80;99.90;;;;;;5068528;28;19993;-59
2021/07/01 09:36:07;;;;;;;;;;;20.90;99.90;;;;;;5072693;28;19991;-59
2021/07/01 09:38:33;;;;;;;;;;;20.90;99.90;;;;;;5081679;28;20462;-59
2021/07/01 09:40:59;;;;;;;;;;;20.90;99.90;;;;;;5075656;28;20096;-59
2021/07/01 09:43:27;;;;;;;;;;;21.00;99.90;;;;;;5069634;28;19985;-59
2021/07/01 09:45:53;;;;;;;;;;;21.10;99.90;;;;;;5070958;28;20406;-59
2021/07/01 09:48:22;;;;;;;;;;;21.10;99.90;;;;;;5086211;28;20007;-59
2021/07/01 09:50:56;;;;;;;;;;;21.20;99.90;;;;;;5072772;28;20001;-58
2021/07/01 09:53:22;;;;;;;;;;;21.30;99.90;;;;;;5059700;28;19986;-58
2021/07/01 09:55:51;;;;;;;;;;;21.40;99.90;;;;;;5056289;28;20043;-58
2021/07/01 09:58:19;;;;;;;;;;;21.50;99.90;;;;;;5059970;28;20707;-58
2021/07/01 10:00:48;;;;;;;;;;;21.50;99.90;;;;;;5057715;28;19998;-59
2021/07/01 10:03:13;;;;;;;;;;;21.60;99.90;;;;;;5063188;28;20013;-58
2021/07/01 10:05:39;;;;;;;;;;;21.50;99.90;;;;;;5064800;28;19990;-59
2021/07/01 10:08:05;;;;;;;;;;;21.40;99.90;;;;;;5064096;28;20072;-60
2021/07/01 10:10:47;;;;;;;;;;;21.50;99.90;;;;;;5055882;28;20005;-58
2021/07/01 10:13:13;;;;;;;;;;;21.60;99.90;;;;;;5062935;28;20007;-58
2021/07/01 10:15:39;;;;;;;;;;;21.90;99.90;;;;;;5052088;28;20092;-58
2021/07/01 10:18:06;;;;;;;;;;;22.00;99.90;;;;;;5062838;28;20011;-58
2021/07/01 10:20:42;;;;;;;;;;;22.00;99.90;;;;;;5064253;28;20068;-56
2021/07/01 10:23:18;;;;;;;;;;;22.10;99.90;;;;;;5065472;28;19989;-57
2021/07/01 10:25:44;;;;;;;;;;;22.10;99.90;;;;;;5064730;28;20846;-57
2021/07/01 10:28:11;;;;;;;;;;;21.90;99.90;;;;;;5058022;28;19986;-57
2021/07/01 10:30:37;;;;;;;;;;;21.90;99.90;;;;;;5055108;28;20009;-57
2021/07/01 10:33:03;;;;;;;;;;;21.90;99.90;;;;;;5064346;28;19989;-57
2021/07/01 10:35:28;;;;;;;;;;;22.00;99.90;;;;;;5064152;28;19993;-57
2021/07/01 10:38:00;;;;;;;;;;;21.90;99.90;;;;;;5069159;28;20000;-57
2021/07/01 10:40:25;;;;;;;;;;;21.90;99.90;;;;;;5061246;28;20084;-57
2021/07/01 10:42:52;;;;;;;;;;;21.80;99.90;;;;;;5060426;28;20101;-57
2021/07/01 10:45:18;;;;;;;;;;;21.80;99.90;;;;;;5048182;28;19994;-57
2021/07/01 10:47:46;;;;;;;;;;;21.90;99.90;;;;;;5059688;28;20047;-57
2021/07/01 10:50:21;;;;;;;;;;;22.00;99.90;;;;;;5062913;28;20009;-57
2021/07/01 10:52:47;;;;;;;;;;;22.20;99.90;;;;;;5063443;28;19997;-57
2021/07/01 10:55:14;;;;;;;;;;;22.60;99.90;;;;;;5056368;28;20097;-57
2021/07/01 10:58:06;;;;;;;;;;;22.40;99.90;;;;;;5054822;28;19986;-57
2021/07/01 11:00:39;;;;;;;;;;;22.40;99.90;;;;;;5057399;28;20032;-57
2021/07/01 11:03:05;;;;;;;;;;;22.40;99.90;;;;;;5049800;28;20032;-57
2021/07/01 11:05:34;;;;;;;;;;;22.50;99.90;;;;;;5032507;28;19985;-57
2021/07/01 11:08:00;;;;;;;;;;;22.30;99.90;;;;;;5050837;28;20422;-57
2021/07/01 11:10:35;;;;;;;;;;;22.40;99.90;;;;;;5047945;28;20005;-57
2021/07/01 11:13:08;;;;;;;;;;;22.60;99.90;;;;;;5038578;28;20035;-57
2021/07/01 11:15:34;;;;;;;;;;;22.80;99.90;;;;;;5034317;28;19990;-57
2021/07/01 11:18:11;;;;;;;;;;;22.80;99.90;;;;;;5040954;28;20004;-57
2021/07/01 11:20:37;;;;;;;;;;;22.60;99.90;;;;;;5050339;28;20012;-57
2021/07/01 11:23:03;;;;;;;;;;;22.50;99.90;;;;;;5050259;28;19986;-57
2021/07/01 11:25:31;;;;;;;;;;;22.50;99.90;;;;;;5031475;28;20500;-57
2021/07/01 11:28:13;;;;;;;;;;;22.50;99.90;;;;;;5029869;28;20081;-57
2021/07/01 11:30:50;;;;;;;;;;;22.30;99.90;;;;;;5030237;28;20014;-57
2021/07/01 11:33:17;;;;;;;;;;;22.20;99.90;;;;;;5046919;28;20000;-57
2021/07/01 11:35:43;;;;;;;;;;;22.30;99.90;;;;;;5049683;28;19989;-57
2021/07/01 11:38:27;;;;;;;;;;;22.20;99.90;;;;;;5049536;28;19985;-57
2021/07/01 11:40:55;;;;;;;;;;;22.30;99.90;;;;;;5049278;28;20004;-57
2021/07/01 11:43:21;;;;;;;;;;;22.40;99.90;;;;;;5049176;28;20036;-57
2021/07/01 11:45:48;;;;;;;;;;;22.40;99.90;;;;;;5049883;28;19996;-57
2021/07/01 11:48:14;;;;;;;;;;;22.50;99.90;;;;;;5049329;28;20036;-57
2021/07/01 11:50:40;;;;;;;;;;;22.50;99.90;;;;;;5049416;28;20010;-57
2021/07/01 11:53:07;;;;;;;;;;;23.00;99.90;;;;;;5045998;28;20431;-57
2021/07/01 11:55:32;;;;;;;;;;;23.30;99.90;;;;;;5041046;28;20040;-57
2021/07/01 11:57:58;;;;;;;;;;;23.40;99.90;;;;;;5045998;28;20022;-57
2021/07/01 12:00:25;;;;;;;;;;;23.80;99.90;;;;;;5041221;28;20283;-57
2021/07/01 12:02:51;;;;;;;;;;;24.10;99.90;;;;;;5043954;28;19989;-57
2021/07/01 12:05:18;;;;;;;;;;;24.20;99.90;;;;;;5047829;28;20372;-57
2021/07/01 12:07:45;;;;;;;;;;;24.40;99.90;;;;;;5046148;28;20071;-57
2021/07/01 12:10:16;;;;;;;;;;;24.40;99.90;;;;;;5048263;28;20005;-57
2021/07/01 12:12:42;;;;;;;;;;;24.30;99.90;;;;;;5048963;28;20001;-57
2021/07/01 12:15:08;;;;;;;;;;;24.00;99.90;;;;;;5031002;28;19994;-58
2021/07/01 12:17:53;;;;;;;;;;;24.10;99.90;;;;;;5027589;28;20479;-57
2021/07/01 12:20:46;;;;;;;;;;;24.20;99.90;;;;;;5037371;28;19993;-57
2021/07/01 12:23:12;;;;;;;;;;;24.30;99.90;;;;;;5027534;28;20650;-57
2021/07/01 12:25:39;;;;;;;;;;;24.20;99.90;;;;;;5041615;28;19990;-57
2021/07/01 12:28:05;;;;;;;;;;;24.30;99.90;;;;;;5048033;28;20534;-57
2021/07/01 12:30:50;;;;;;;;;;;24.60;99.90;;;;;;5042055;28;20035;-57
2021/07/01 12:33:35;;;;;;;;;;;24.80;99.90;;;;;;5028736;28;19986;-57
2021/07/01 12:36:05;;;;;;;;;;;24.50;99.90;;;;;;5048413;28;20364;-57
2021/07/01 12:38:30;;;;;;;;;;;24.90;99.90;;;;;;5039068;28;20368;-57
2021/07/01 12:40:58;;;;;;;;;;;25.20;99.90;;;;;;5041354;28;19990;-57
2021/07/01 12:43:47;;;;;;;;;;;25.50;99.90;;;;;;5048146;28;19998;-57
2021/07/01 12:46:32;;;;;;;;;;;25.70;99.90;;;;;;5047766;28;20083;-57
2021/07/01 12:48:57;;;;;;;;;;;26.00;99.90;;;;;;5048130;28;20013;-57
2021/07/01 12:51:35;;;;;;;;;;;25.80;99.90;;;;;;5031279;28;19997;-57
2021/07/01 12:54:00;;;;;;;;;;;26.10;99.90;;;;;;5030482;28;19992;-57
2021/07/01 12:56:30;;;;;;;;;;;26.20;99.90;;;;;;5048265;28;20435;-57
2021/07/01 12:58:56;;;;;;;;;;;26.30;99.90;;;;;;5038791;28;19998;-57
2021/07/01 13:01:21;;;;;;;;;;;26.00;99.90;;;;;;5044291;28;20008;-57
2021/07/01 13:03:48;;;;;;;;;;;25.60;99.90;;;;;;5035993;28;19997;-57
2021/07/01 13:06:15;;;;;;;;;;;25.80;99.90;;;;;;5043086;28;19986;-57
2021/07/01 13:08:40;;;;;;;;;;;26.00;99.90;;;;;;5047094;28;19989;-57
2021/07/01 13:11:06;;;;;;;;;;;26.20;99.90;;;;;;5045255;28;19994;-57
2021/07/01 13:13:31;;;;;;;;;;;26.20;99.90;;;;;;5045624;28;20012;-57
2021/07/01 13:16:07;;;;;;;;;;;25.90;99.90;;;;;;5040111;28;19993;-57
2021/07/01 13:18:32;;;;;;;;;;;25.80;99.90;;;;;;5028094;28;19986;-57
2021/07/01 13:21:12;;;;;;;;;;;26.30;99.90;;;;;;5041298;28;20005;-57
2021/07/01 13:23:38;;;;;;;;;;;26.60;99.90;;;;;;5045735;28;19993;-57
2021/07/01 13:26:07;;;;;;;;;;;26.80;99.90;;;;;;5045806;28;20486;-57
2021/07/01 13:28:34;;;;;;;;;;;26.90;99.90;;;;;;5046240;28;20032;-57
2021/07/01 13:31:00;;;;;;;;;;;27.10;99.90;;;;;;5047175;28;19998;-57
2021/07/01 13:33:25;;;;;;;;;;;27.20;99.90;;;;;;5042859;28;20033;-57
2021/07/01 13:35:51;;;;;;;;;;;27.30;99.90;;;;;;5033150;28;19990;-57
2021/07/01 13:38:21;;;;;;;;;;;27.10;99.90;;;;;;5036823;28;20081;-57
2021/07/01 13:40:47;;;;;;;;;;;27.30;99.90;;;;;;5047318;28;20515;-57
2021/07/01 13:43:15;;;;;;;;;;;27.30;99.90;;;;;;5046320;28;20059;-57
2021/07/01 13:45:45;;;;;;;;;;;27.10;99.90;;;;;;5044243;28;19985;-57
2021/07/01 13:48:21;;;;;;;;;;;27.00;99.90;;;;;;5047539;28;20349;-57
2021/07/01 13:50:47;;;;;;;;;;;26.90;99.90;;;;;;5046596;28;20518;-57
2021/07/01 13:53:17;;;;;;;;;;;27.10;99.90;;;;;;5045624;28;19986;-57
2021/07/01 13:55:46;;;;;;;;;;;27.10;99.90;;;;;;5042638;28;19990;-58
2021/07/01 13:58:12;;;;;;;;;;;27.30;99.90;;;;;;5047067;28;20529;-59
2021/07/01 14:00:38;;;;;;;;;;;27.60;99.90;;;;;;5048390;28;19985;-59
2021/07/01 14:03:08;;;;;;;;;;;27.80;99.90;;;;;;5043662;28;20007;-59
2021/07/01 14:05:35;;;;;;;;;;;28.00;99.90;;;;;;5045509;28;20079;-59
2021/07/01 14:08:02;;;;;;;;;;;28.00;99.90;;;;;;5046646;28;19986;-59
2021/07/01 14:10:29;;;;;;;;;;;27.70;99.90;;;;;;5064089;28;20434;-59
2021/07/01 14:12:55;;;;;;;;;;;27.70;99.90;;;;;;5058166;28;20080;-59
2021/07/01 14:15:21;;;;;;;;;;;27.90;99.90;;;;;;5030621;28;20088;-59
2021/07/01 14:17:46;;;;;;;;;;;28.00;99.90;;;;;;5037204;28;20375;-59